createdAt,value
2022-08-16T00:01:25.027Z,21.80
2022-08-16T00:03:55.904Z,21.80
2022-08-16T00:06:23.325Z,21.80
2022-08-16T00:08:52.396Z,21.80
2022-08-16T00:11:22.416Z,21.70
2022-08-16T00:13:53.631Z,21.70
2022-08-16T00:17:05.310Z,21.70
2022-08-16T00:19:28.398Z,21.70
2022-08-16T00:22:13.596Z,21.70
2022-08-16T00:24:44.762Z,21.60
2022-08-16T00:27:14.926Z,21.60
2022-08-16T00:29:42.268Z,21.60
2022-08-16T00:32:11.040Z,21.60
2022-08-16T00:34:44.273Z,21.60
2022-08-16T00:37:56.878Z,21.60
2022-08-16T00:40:33.411Z,21.50
2022-08-16T00:43:01.390Z,21.50
2022-08-16T00:45:59.946Z,21.50
2022-08-16T00:48:30.325Z,21.50
2022-08-16T00:51:01.553Z,21.40
2022-08-16T00:53:30.679Z,21.40
2022-08-16T00:56:00.824Z,21.40
2022-08-16T00:58:40.645Z,21.40
2022-08-16T01:01:11.899Z,21.40
2022-08-16T01:03:41.917Z,21.30
2022-08-16T01:06:40.187Z,21.40
2022-08-16T01:08:59.965Z,21.30
2022-08-16T01:11:30.605Z,21.30
2022-08-16T01:14:06.607Z,21.30
2022-08-16T01:16:34.899Z,21.30
2022-08-16T01:19:26.721Z,21.30
2022-08-16T01:22:47.568Z,21.30
2022-08-16T01:25:05.545Z,21.20
2022-08-16T01:27:57.776Z,21.20
2022-08-16T01:30:36.733Z,21.20
2022-08-16T01:33:15.041Z,21.20
2022-08-16T01:35:52.628Z,21.20
2022-08-16T01:38:38.694Z,21.20
2022-08-16T01:41:21.608Z,21.20
2022-08-16T01:43:54.140Z,21.20
2022-08-16T01:46:40.593Z,21.10
2022-08-16T01:49:22.415Z,21.10
2022-08-16T01:51:57.423Z,21.10
2022-08-16T01:54:39.878Z,21.10
2022-08-16T01:57:08.186Z,21.10
2022-08-16T01:59:41.228Z,21.10
2022-08-16T02:02:26.814Z,21.10
2022-08-16T02:05:00.146Z,21.10
2022-08-16T02:07:27.534Z,21.00
2022-08-16T02:10:02.394Z,21.00
2022-08-16T02:12:51.420Z,21.00
2022-08-16T02:15:27.414Z,21.00
2022-08-16T02:17:58.887Z,21.00
2022-08-16T02:20:34.032Z,21.00
2022-08-16T02:23:05.727Z,21.00
2022-08-16T02:25:51.884Z,21.00
2022-08-16T02:28:23.543Z,21.00
2022-08-16T02:30:54.428Z,21.00
2022-08-16T02:33:42.903Z,21.00
2022-08-16T02:36:42.296Z,21.00
2022-08-16T02:39:05.250Z,20.90
2022-08-16T02:41:33.007Z,20.90
2022-08-16T02:44:06.521Z,20.90
2022-08-16T02:46:34.400Z,20.80
2022-08-16T02:49:07.296Z,20.80
2022-08-16T02:51:36.937Z,20.80
2022-08-16T02:54:07.927Z,20.80
2022-08-16T02:56:36.241Z,20.80
2022-08-16T02:59:11.643Z,20.70
2022-08-16T03:01:42.184Z,20.80
2022-08-16T03:04:49.735Z,20.70
2022-08-16T03:07:14.480Z,20.70
2022-08-16T03:09:44.807Z,20.70
2022-08-16T03:12:18.409Z,20.70
2022-08-16T03:14:47.249Z,20.70
2022-08-16T03:17:21.926Z,20.70
2022-08-16T03:19:59.862Z,20.70
2022-08-16T03:22:30.719Z,20.70
2022-08-16T03:25:07.593Z,20.70
2022-08-16T03:27:38.989Z,20.70
2022-08-16T03:30:17.377Z,20.70
2022-08-16T03:32:52.946Z,20.70
2022-08-16T03:35:33.048Z,20.60
2022-08-16T03:38:34.159Z,20.70
2022-08-16T03:40:59.534Z,20.60
2022-08-16T03:43:51.359Z,20.60
2022-08-16T03:46:47.625Z,20.60
2022-08-16T03:49:12.609Z,20.60
2022-08-16T03:51:43.274Z,20.60
2022-08-16T03:54:18.131Z,20.60
2022-08-16T03:56:58.060Z,20.50
2022-08-16T03:59:30.099Z,20.60
2022-08-16T04:02:10.657Z,20.60
2022-08-16T04:04:53.900Z,20.60
2022-08-16T04:07:21.531Z,20.60
2022-08-16T04:09:53.714Z,20.60
2022-08-16T04:12:53.937Z,20.70
2022-08-16T04:15:13.595Z,20.70
2022-08-16T04:17:56.194Z,20.70
2022-08-16T04:20:34.018Z,20.60
2022-08-16T04:23:07.981Z,20.60
2022-08-16T04:25:39.550Z,20.60
2022-08-16T04:28:29.668Z,20.60
2022-08-16T04:30:59.447Z,20.60
2022-08-16T04:33:27.726Z,20.50
2022-08-16T04:35:58.592Z,20.50
2022-08-16T04:38:30.573Z,20.60
2022-08-16T04:40:58.310Z,20.60
2022-08-16T04:43:25.994Z,20.60
2022-08-16T04:46:00.653Z,20.60
2022-08-16T04:48:34.193Z,20.60
2022-08-16T04:51:11.978Z,20.60
2022-08-16T04:53:48.296Z,20.60
2022-08-16T04:56:18.397Z,20.70
2022-08-16T04:58:47.249Z,20.70
2022-08-16T05:01:19.643Z,20.70
2022-08-16T05:04:00.951Z,20.70
2022-08-16T05:06:49.776Z,20.70
2022-08-16T05:09:39.756Z,20.70
2022-08-16T05:12:12.692Z,20.70
2022-08-16T05:15:01.542Z,20.70
2022-08-16T05:17:31.779Z,20.70
2022-08-16T05:20:01.180Z,20.70
2022-08-16T05:22:48.764Z,20.70
2022-08-16T05:25:22.990Z,20.70
2022-08-16T05:27:57.613Z,20.70
2022-08-16T05:30:36.831Z,20.70
2022-08-16T05:33:16.351Z,20.70
2022-08-16T05:35:54.993Z,20.70
2022-08-16T05:38:45.640Z,20.80
2022-08-16T05:41:16.836Z,20.80
2022-08-16T05:43:46.812Z,20.80
2022-08-16T05:46:28.952Z,20.80
2022-08-16T05:49:10.017Z,20.80
2022-08-16T05:51:42.477Z,20.90
2022-08-16T05:54:17.597Z,20.90
2022-08-16T05:56:56.975Z,20.90
2022-08-16T05:59:27.009Z,21.00
2022-08-16T06:01:58.076Z,21.00
2022-08-16T06:04:37.745Z,21.00
2022-08-16T06:07:26.389Z,21.00
2022-08-16T06:10:05.475Z,21.10
2022-08-16T06:12:37.634Z,21.10
2022-08-16T06:15:18.519Z,21.10
2022-08-16T06:17:46.481Z,21.10
2022-08-16T06:20:35.498Z,21.10
2022-08-16T06:23:24.206Z,21.10
2022-08-16T06:26:08.066Z,21.00
2022-08-16T06:28:40.090Z,21.10
2022-08-16T06:31:14.435Z,21.10
2022-08-16T06:33:47.492Z,21.20
2022-08-16T06:36:21.083Z,21.20
2022-08-16T06:39:14.004Z,21.20
2022-08-16T06:41:53.125Z,21.30
2022-08-16T06:44:52.412Z,21.30
2022-08-16T06:47:52.865Z,21.40
2022-08-16T06:50:22.053Z,21.40
2022-08-16T06:52:58.094Z,21.50
2022-08-16T06:55:34.387Z,21.50
2022-08-16T06:58:08.183Z,21.50
2022-08-16T07:00:38.988Z,21.60
2022-08-16T07:03:26.415Z,21.60
2022-08-16T07:05:56.976Z,21.60
2022-08-16T07:08:42.422Z,21.70
2022-08-16T07:11:10.202Z,21.80
2022-08-16T07:14:22.879Z,21.80
2022-08-16T07:16:34.119Z,21.80
2022-08-16T07:19:03.430Z,21.90
2022-08-16T07:21:46.282Z,21.90
2022-08-16T07:24:30.565Z,22.00
2022-08-16T07:27:04.144Z,22.00
2022-08-16T07:29:36.408Z,22.10
2022-08-16T07:32:08.092Z,22.10
2022-08-16T07:34:37.621Z,22.20
2022-08-16T07:37:15.493Z,22.30
2022-08-16T07:40:02.356Z,22.30
2022-08-16T07:42:41.480Z,22.40
2022-08-16T07:45:10.340Z,22.50
2022-08-16T07:47:44.283Z,22.50
2022-08-16T07:50:55.079Z,22.50
2022-08-16T07:53:04.301Z,22.60
2022-08-16T07:55:46.011Z,22.70
2022-08-16T07:58:34.465Z,22.80
2022-08-16T08:01:10.819Z,22.80
2022-08-16T08:03:49.275Z,22.90
2022-08-16T08:06:25.035Z,23.00
2022-08-16T08:08:57.143Z,23.10
2022-08-16T08:11:31.924Z,23.10
2022-08-16T08:14:06.556Z,23.20
2022-08-16T08:16:45.499Z,23.40
2022-08-16T08:19:21.703Z,23.60
2022-08-16T08:21:58.830Z,23.90
2022-08-16T08:24:38.859Z,24.20
2022-08-16T08:27:10.896Z,24.80
2022-08-16T08:29:40.299Z,25.20
2022-08-16T08:32:59.990Z,25.70
2022-08-16T08:35:03.961Z,26.20
2022-08-16T08:37:54.432Z,26.70
2022-08-16T08:40:27.342Z,27.20
2022-08-16T08:43:11.735Z,27.70
2022-08-16T08:45:52.868Z,28.20
2022-08-16T08:48:34.342Z,28.40
2022-08-16T08:51:14.061Z,28.70
2022-08-16T08:53:57.340Z,28.90
2022-08-16T08:56:34.750Z,29.40
2022-08-16T08:59:25.817Z,29.50
2022-08-16T09:01:57.380Z,29.80
2022-08-16T09:04:28.539Z,30.20
2022-08-16T09:07:01.168Z,30.30
2022-08-16T09:09:33.598Z,30.60
2022-08-16T09:12:06.745Z,30.80
2022-08-16T09:14:49.691Z,31.10
2022-08-16T09:17:45.447Z,31.00
2022-08-16T09:20:14.297Z,31.40
2022-08-16T09:22:42.972Z,31.50
2022-08-16T09:25:13.045Z,31.60
2022-08-16T09:27:56.565Z,31.70
2022-08-16T09:30:34.115Z,31.80
2022-08-16T09:33:10.997Z,31.80
2022-08-16T09:35:39.027Z,32.00
2022-08-16T09:38:08.407Z,32.00
2022-08-16T09:40:42.545Z,32.10
2022-08-16T09:43:58.280Z,32.10
2022-08-16T09:46:45.732Z,32.00
2022-08-16T09:48:56.386Z,31.80
2022-08-16T09:51:30.640Z,31.40
2022-08-16T09:53:57.821Z,31.10
2022-08-16T09:56:31.752Z,30.80
2022-08-16T09:59:05.602Z,30.50
2022-08-16T10:01:36.521Z,30.40
2022-08-16T10:04:09.870Z,30.30
2022-08-16T10:06:56.843Z,30.30
2022-08-16T10:09:25.426Z,30.30
2022-08-16T10:12:19.487Z,30.00
2022-08-16T10:14:46.972Z,29.90
2022-08-16T10:17:14.756Z,29.90
2022-08-16T10:19:46.957Z,29.70
2022-08-16T10:22:17.993Z,29.60
2022-08-16T10:24:55.772Z,29.50
2022-08-16T10:27:45.696Z,29.30
2022-08-16T10:30:24.767Z,29.30
2022-08-16T10:32:56.028Z,29.10
2022-08-16T10:40:45.450Z,29.00
2022-08-16T10:43:18.563Z,28.60
2022-08-16T10:45:59.780Z,28.30
2022-08-16T10:48:29.382Z,28.20
2022-08-16T10:50:59.990Z,28.20
2022-08-16T10:53:33.165Z,28.10
2022-08-16T10:56:55.380Z,28.10
2022-08-16T11:07:52.186Z,27.90
2022-08-16T11:13:57.292Z,27.80
2022-08-16T11:16:26.590Z,27.80
2022-08-16T11:19:05.697Z,27.80
2022-08-16T11:22:39.155Z,27.80
2022-08-16T11:24:39.470Z,27.80
2022-08-16T11:27:35.443Z,27.90
2022-08-16T11:29:59.037Z,27.80
2022-08-16T11:32:31.908Z,27.80
2022-08-16T11:35:15.492Z,27.70
2022-08-16T11:40:38.887Z,27.60
2022-08-16T11:43:13.036Z,27.70
2022-08-16T11:45:53.920Z,27.80
2022-08-16T11:48:23.052Z,27.90
2022-08-16T11:50:55.917Z,27.80
2022-08-16T11:53:24.290Z,27.80
2022-08-16T11:55:55.354Z,27.70
2022-08-16T11:58:26.471Z,27.80
2022-08-16T12:00:57.945Z,27.90
2022-08-16T12:03:31.600Z,28.00
2022-08-16T12:06:11.046Z,28.20
2022-08-16T12:08:39.138Z,28.30
2022-08-16T12:11:06.232Z,28.50
2022-08-16T12:13:36.133Z,28.70
2022-08-16T12:16:03.314Z,28.80
2022-08-16T12:18:33.915Z,28.80
2022-08-16T12:21:00.744Z,28.90
2022-08-16T12:23:31.569Z,29.00
2022-08-16T12:25:59.634Z,28.90
2022-08-16T12:28:54.065Z,28.80
2022-08-16T12:31:14.250Z,28.70
2022-08-16T12:33:44.913Z,28.50
2022-08-16T12:36:14.003Z,28.40
2022-08-16T12:38:48.777Z,28.30
2022-08-16T12:41:24.566Z,28.20
2022-08-16T12:44:01.096Z,28.00
2022-08-16T12:46:28.900Z,27.90
2022-08-16T12:49:01.509Z,27.80
2022-08-16T12:51:58.824Z,27.90
2022-08-16T12:54:19.791Z,28.00
2022-08-16T12:56:46.888Z,28.20
2022-08-16T12:59:20.818Z,28.30
2022-08-16T13:01:50.502Z,28.20
2022-08-16T13:04:20.208Z,28.20
2022-08-16T13:06:52.596Z,28.20
2022-08-16T13:09:21.442Z,28.20
2022-08-16T13:12:00.441Z,28.30
2022-08-16T13:14:35.600Z,28.30
2022-08-16T13:17:06.786Z,28.20
2022-08-16T13:20:03.866Z,28.20
2022-08-16T13:22:24.967Z,28.20
2022-08-16T13:24:53.430Z,28.10
2022-08-16T13:28:02.215Z,28.00
2022-08-16T13:30:36.393Z,27.90
2022-08-16T13:33:01.252Z,27.90
2022-08-16T13:35:34.603Z,27.80
2022-08-16T13:38:04.096Z,27.80
2022-08-16T13:40:40.641Z,27.70
2022-08-16T13:43:11.296Z,27.70
2022-08-16T13:45:38.410Z,27.60
2022-08-16T13:48:11.838Z,27.70
2022-08-16T13:50:53.832Z,27.90
2022-08-16T13:53:24.386Z,27.90
2022-08-16T13:55:57.923Z,27.90
2022-08-16T13:58:37.513Z,27.90
2022-08-16T14:01:16.228Z,27.90
2022-08-16T14:03:44.479Z,27.90
2022-08-16T14:06:13.220Z,28.10
2022-08-16T14:08:44.972Z,28.40
2022-08-16T14:11:26.434Z,28.60
2022-08-16T14:14:00.699Z,30.80
2022-08-16T14:16:34.130Z,30.80
2022-08-16T14:19:02.449Z,30.20
2022-08-16T14:21:34.910Z,29.80
2022-08-16T14:24:16.684Z,29.50
2022-08-16T14:26:52.763Z,30.10
2022-08-16T14:29:22.926Z,29.90
2022-08-16T14:31:53.645Z,32.40
2022-08-16T14:34:25.557Z,35.50
2022-08-16T14:36:55.556Z,37.80
2022-08-16T14:39:24.859Z,38.90
2022-08-16T14:41:55.986Z,39.40
2022-08-16T14:44:23.777Z,38.30
2022-08-16T14:46:55.837Z,38.30
2022-08-16T14:49:26.181Z,38.30
2022-08-16T14:51:53.679Z,37.30
2022-08-16T14:54:27.283Z,38.00
2022-08-16T14:56:57.066Z,36.30
2022-08-16T14:59:24.943Z,34.30
2022-08-16T15:01:59.211Z,33.60
2022-08-16T15:04:39.864Z,32.70
2022-08-16T15:07:11.044Z,32.20
2022-08-16T15:09:59.833Z,32.40
2022-08-16T15:12:33.507Z,32.40
2022-08-16T15:15:04.495Z,31.70
2022-08-16T15:17:41.432Z,31.10
2022-08-16T15:20:09.679Z,31.10
2022-08-16T15:22:45.948Z,31.60
2022-08-16T15:25:41.476Z,33.20
2022-08-16T15:28:23.951Z,32.30
2022-08-16T15:31:00.463Z,31.40
2022-08-16T15:33:32.227Z,31.00
2022-08-16T15:36:02.201Z,32.60
2022-08-16T15:38:57.154Z,32.10
2022-08-16T15:41:38.676Z,31.40
2022-08-16T15:44:12.100Z,30.90
2022-08-16T15:46:54.677Z,30.60
2022-08-16T15:49:34.556Z,30.30
2022-08-16T15:52:18.328Z,30.10
2022-08-16T15:54:53.206Z,30.00
2022-08-16T15:57:30.180Z,29.90
2022-08-16T16:00:14.612Z,29.70
2022-08-16T16:02:43.261Z,29.70
2022-08-16T16:05:17.129Z,29.60
2022-08-16T16:07:56.275Z,29.50
2022-08-16T16:10:29.242Z,29.50
2022-08-16T16:13:00.502Z,29.40
2022-08-16T16:15:30.423Z,29.30
2022-08-16T16:18:03.012Z,29.20
2022-08-16T16:20:43.645Z,29.10
2022-08-16T16:23:11.351Z,29.00
2022-08-16T16:25:43.649Z,28.90
2022-08-16T16:29:05.654Z,28.90
2022-08-16T16:31:07.438Z,28.80
2022-08-16T16:33:39.858Z,28.70
2022-08-16T16:36:08.504Z,28.70
2022-08-16T16:38:35.476Z,28.70
2022-08-16T16:41:09.313Z,28.60
2022-08-16T16:43:41.901Z,28.50
2022-08-16T16:46:41.345Z,28.40
2022-08-16T16:48:57.984Z,28.40
2022-08-16T16:51:28.059Z,28.30
2022-08-16T16:53:56.865Z,28.30
2022-08-16T16:56:32.349Z,28.20
2022-08-16T16:59:14.992Z,28.20
2022-08-16T17:01:59.900Z,28.10
2022-08-16T17:11:55.076Z,27.90
2022-08-16T17:14:33.563Z,27.90
2022-08-16T17:17:06.853Z,27.80
2022-08-16T17:19:37.498Z,27.80
2022-08-16T17:22:14.972Z,27.70
2022-08-16T17:24:50.897Z,27.70
2022-08-16T17:27:32.884Z,27.70
2022-08-16T17:30:17.108Z,27.60
2022-08-16T17:32:57.896Z,27.60
2022-08-16T17:35:35.347Z,27.50
2022-08-16T17:38:08.691Z,27.50
2022-08-16T17:40:50.385Z,27.50
2022-08-16T17:43:31.700Z,27.40
2022-08-16T17:45:59.633Z,27.40
2022-08-16T17:48:31.161Z,27.40
2022-08-16T17:50:59.870Z,27.30
2022-08-16T17:53:27.374Z,27.30
2022-08-16T17:55:56.644Z,27.30
2022-08-16T17:58:24.387Z,27.20
2022-08-16T18:00:57.805Z,27.20
2022-08-16T18:04:07.246Z,27.20
2022-08-16T18:06:22.573Z,27.10
2022-08-16T18:08:52.190Z,27.10
2022-08-16T18:11:30.135Z,27.00
2022-08-16T18:14:00.321Z,27.00
2022-08-16T18:16:27.268Z,26.90
2022-08-16T18:18:54.291Z,26.90
2022-08-16T18:21:41.043Z,26.90
2022-08-16T18:24:09.579Z,26.80
2022-08-16T18:26:37.081Z,26.80
2022-08-16T18:29:07.817Z,26.70
2022-08-16T18:31:37.963Z,26.60
2022-08-16T18:34:07.510Z,26.60
2022-08-16T18:36:35.411Z,26.60
2022-08-16T18:39:02.298Z,26.50
2022-08-16T18:41:30.424Z,26.50
2022-08-16T18:44:26.806Z,26.40
2022-08-16T18:46:50.723Z,26.40
2022-08-16T18:49:19.863Z,26.30
2022-08-16T18:51:46.848Z,26.30
2022-08-16T18:54:18.207Z,26.20
2022-08-16T18:56:55.191Z,26.20
2022-08-16T18:59:30.118Z,26.20
2022-08-16T19:01:59.985Z,26.10
2022-08-16T19:04:47.519Z,26.10
2022-08-16T19:07:29.653Z,26.10
2022-08-16T19:10:04.355Z,26.00
2022-08-16T19:12:38.417Z,26.00
2022-08-16T19:15:16.176Z,26.00
2022-08-16T19:17:44.689Z,25.90
2022-08-16T19:20:14.250Z,25.90
2022-08-16T19:25:46.128Z,25.80
2022-08-16T19:28:48.290Z,25.80
2022-08-16T19:31:04.431Z,25.80
2022-08-16T19:33:31.460Z,25.70
2022-08-16T19:35:58.405Z,25.70
2022-08-16T19:38:25.429Z,25.60
2022-08-16T19:40:54.606Z,25.60
2022-08-16T19:43:22.000Z,25.50
2022-08-16T19:45:49.550Z,25.50
2022-08-16T19:48:18.916Z,25.50
2022-08-16T19:50:51.809Z,25.40
2022-08-16T19:53:19.560Z,25.40
2022-08-16T19:55:47.436Z,25.40
2022-08-16T19:58:17.022Z,25.30
2022-08-16T20:00:47.927Z,25.30
2022-08-16T20:03:21.925Z,25.20
2022-08-16T20:05:51.586Z,25.20
2022-08-16T20:08:22.208Z,25.20
2022-08-16T20:10:50.474Z,25.20
2022-08-16T20:13:22.982Z,25.20
2022-08-16T20:15:50.562Z,25.10
2022-08-16T20:18:25.021Z,25.10
2022-08-16T20:20:53.136Z,25.10
2022-08-16T20:23:24.444Z,25.10
2022-08-16T20:25:57.763Z,25.10
2022-08-16T20:28:52.140Z,25.00
2022-08-16T20:31:13.987Z,25.00
2022-08-16T20:33:43.159Z,25.00
2022-08-16T20:36:16.034Z,25.00
2022-08-16T20:38:46.881Z,25.00
2022-08-16T20:41:17.183Z,24.90
2022-08-16T20:43:45.642Z,24.90
2022-08-16T20:46:13.600Z,24.90
2022-08-16T20:48:40.563Z,24.80
2022-08-16T20:51:10.613Z,24.80
2022-08-16T20:53:39.600Z,24.80
2022-08-16T20:56:07.714Z,24.70
2022-08-16T20:58:34.749Z,24.70
2022-08-16T21:01:05.897Z,24.70
2022-08-16T21:03:35.907Z,24.60
2022-08-16T21:06:05.670Z,24.70
2022-08-16T21:08:51.619Z,24.70
2022-08-16T21:11:21.513Z,24.60
2022-08-16T21:13:48.423Z,24.60
2022-08-16T21:16:17.654Z,24.60
2022-08-16T21:18:44.688Z,24.60
2022-08-16T21:21:12.223Z,24.50
2022-08-16T21:23:41.311Z,24.50
2022-08-16T21:26:11.058Z,24.50
2022-08-16T21:28:44.135Z,24.50
2022-08-16T21:31:14.578Z,24.50
2022-08-16T21:33:43.065Z,24.40
2022-08-16T21:40:42.004Z,24.40
2022-08-16T21:43:13.262Z,24.30
2022-08-16T21:45:44.808Z,24.30
2022-08-16T21:48:12.067Z,24.30
2022-08-16T21:50:40.302Z,24.30
2022-08-16T21:53:10.162Z,24.30
2022-08-16T21:55:44.081Z,24.20
2022-08-16T21:58:11.677Z,24.20
2022-08-16T22:00:39.647Z,24.20
2022-08-16T22:03:10.698Z,24.20
2022-08-16T22:05:42.850Z,24.10
2022-08-16T22:08:10.258Z,24.10
2022-08-16T22:11:06.816Z,24.00
2022-08-16T22:13:26.304Z,24.10
2022-08-16T22:15:53.551Z,24.00
2022-08-16T22:18:23.162Z,24.00
2022-08-16T22:20:50.952Z,24.00
2022-08-16T22:23:23.055Z,24.00
2022-08-16T22:25:51.584Z,24.00
2022-08-16T22:28:23.031Z,24.00
2022-08-16T22:30:52.358Z,24.00
2022-08-16T22:33:27.089Z,23.90
2022-08-16T22:35:59.648Z,23.90
2022-08-16T22:38:54.098Z,23.90
2022-08-16T22:41:17.750Z,23.90
2022-08-16T22:43:48.049Z,23.80
2022-08-16T22:46:18.651Z,23.80
2022-08-16T22:48:45.902Z,23.80
2022-08-16T22:51:15.360Z,23.80
2022-08-16T22:53:45.021Z,23.80
2022-08-16T22:56:12.117Z,23.80
2022-08-16T22:58:41.466Z,23.70
2022-08-16T23:01:15.094Z,23.70
2022-08-16T23:03:43.216Z,23.70
2022-08-16T23:06:12.267Z,23.70
2022-08-16T23:08:41.288Z,23.70
2022-08-16T23:11:22.483Z,23.70
2022-08-16T23:13:52.968Z,23.60
2022-08-16T23:16:24.901Z,23.60
2022-08-16T23:19:00.327Z,23.60
2022-08-16T23:21:27.793Z,23.60
2022-08-16T23:23:54.656Z,23.50
2022-08-16T23:26:44.501Z,23.50
2022-08-16T23:29:22.012Z,23.50
2022-08-16T23:31:58.921Z,23.50
2022-08-16T23:34:27.057Z,23.40
2022-08-16T23:36:54.780Z,23.40
2022-08-16T23:39:22.283Z,23.40
2022-08-16T23:41:52.563Z,23.40
2022-08-16T23:44:44.220Z,23.40
2022-08-16T23:47:09.520Z,23.40
2022-08-16T23:49:59.976Z,23.40
2022-08-16T23:52:42.320Z,23.40
2022-08-16T23:55:12.748Z,23.40
2022-08-16T23:57:44.197Z,23.30
